Open Full Screen Window  High Contrast Mode
Wind Gusting 00 knots
05
July 22, 2014 8:25 PM CDT
Weather Information
Wind Direction
  040 °
Wind Speed
  05 kt (6 mph)
Wind Gust
  00 kt (0 mph)
Altimeter
30.21 in
Visibility
10 SM
Temperature
22° C
72° F
Dewpoint
15° C
59° F
Humidity
65%
1hr Rain Fall
00.00 in.
24hr Rain Fall
00.00 in.
Sky Condition
Clear
VFR

METAR KMDS 230125Z AUTO 04005KT 10SM CLR 22/15 A3021 RMK AO2

*Background is not an actual portrayal of the airport.